createdAt,value
2017-09-30T00:01:24.380Z,43.73
2017-09-30T00:03:27.116Z,56.33
2017-09-30T00:05:29.781Z,71.87
2017-09-30T00:07:33.202Z,77.03
2017-09-30T00:09:35.957Z,74.37
2017-09-30T00:11:38.619Z,64.77
2017-09-30T00:13:42.129Z,62.83
2017-09-30T00:15:45.572Z,47.60
2017-09-30T00:17:48.227Z,29.43
2017-09-30T00:19:50.925Z,33.93
2017-09-30T00:21:53.614Z,32.40
2017-09-30T00:23:56.334Z,30.63
2017-09-30T00:25:59.081Z,38.80
2017-09-30T00:28:01.762Z,42.20
2017-09-30T00:30:05.236Z,23.97
2017-09-30T00:32:07.893Z,23.90
2017-09-30T00:34:10.624Z,35.53
2017-09-30T00:36:14.103Z,31.70
2017-09-30T00:38:16.792Z,30.93
2017-09-30T00:40:20.448Z,26.40
2017-09-30T00:42:23.116Z,58.43
2017-09-30T00:44:25.874Z,33.23
2017-09-30T00:46:28.603Z,28.37
2017-09-30T00:48:31.249Z,32.13
2017-09-30T00:50:33.991Z,25.70
2017-09-30T00:52:36.697Z,32.77
2017-09-30T00:54:39.366Z,35.90
2017-09-30T00:56:42.126Z,26.43
2017-09-30T00:58:44.853Z,23.27
2017-09-30T01:00:47.552Z,27.13
2017-09-30T01:02:50.993Z,28.90
2017-09-30T01:04:53.687Z,25.87
2017-09-30T01:06:56.440Z,28.80
2017-09-30T01:08:59.123Z,32.43
2017-09-30T01:11:01.818Z,24.17
2017-09-30T01:13:04.502Z,40.63
2017-09-30T01:15:07.169Z,25.87
2017-09-30T01:17:09.932Z,22.63
2017-09-30T01:19:12.657Z,23.87
2017-09-30T01:21:15.386Z,23.77
2017-09-30T01:23:18.244Z,23.90
2017-09-30T01:25:21.053Z,20.20
2017-09-30T01:27:23.739Z,31.43
2017-09-30T01:29:26.553Z,46.03
2017-09-30T01:31:30.034Z,26.70
2017-09-30T01:33:32.724Z,24.37
2017-09-30T01:35:36.259Z,31.77
2017-09-30T01:37:38.998Z,24.67
2017-09-30T01:39:41.788Z,27.33
2017-09-30T01:41:45.273Z,29.13
2017-09-30T01:43:48.769Z,31.13
2017-09-30T01:45:52.292Z,27.13
2017-09-30T01:47:55.050Z,27.30
2017-09-30T01:49:58.523Z,29.80
2017-09-30T01:52:01.241Z,23.03
2017-09-30T01:54:03.986Z,22.37
2017-09-30T01:56:07.449Z,30.80
2017-09-30T01:58:10.308Z,20.30
2017-09-30T02:00:14.047Z,33.77
2017-09-30T02:02:16.787Z,24.83
2017-09-30T02:04:19.489Z,26.00
2017-09-30T02:06:22.198Z,34.97
2017-09-30T02:08:24.914Z,32.47
2017-09-30T02:10:27.628Z,29.23
2017-09-30T02:12:30.307Z,25.20
2017-09-30T02:14:33.030Z,31.57
2017-09-30T02:16:35.769Z,39.03
2017-09-30T02:18:38.530Z,26.00
2017-09-30T02:20:41.244Z,30.87
2017-09-30T02:22:44.657Z,36.10
2017-09-30T02:24:47.315Z,28.90
2017-09-30T02:26:50.859Z,32.57
2017-09-30T02:28:53.596Z,28.77
2017-09-30T02:30:58.021Z,25.43
2017-09-30T02:33:00.685Z,32.33
2017-09-30T02:35:04.103Z,32.80
2017-09-30T02:37:06.787Z,30.10
2017-09-30T02:39:09.583Z,36.60
2017-09-30T02:41:12.261Z,40.87
2017-09-30T02:43:14.963Z,41.73
2017-09-30T02:45:17.669Z,28.10
2017-09-30T02:47:21.082Z,34.90
2017-09-30T02:49:23.749Z,32.10
2017-09-30T02:51:26.435Z,41.57
2017-09-30T02:53:29.114Z,28.73
2017-09-30T02:55:31.868Z,31.27
2017-09-30T02:57:35.389Z,34.53
2017-09-30T02:59:38.124Z,34.03
2017-09-30T03:01:40.814Z,30.63
2017-09-30T03:03:44.296Z,46.53
2017-09-30T03:05:47.710Z,29.77
2017-09-30T03:07:51.200Z,36.03
2017-09-30T03:09:54.676Z,36.50
2017-09-30T03:11:57.314Z,57.53
2017-09-30T03:14:00.104Z,67.80
2017-09-30T03:16:02.836Z,28.97
2017-09-30T03:18:05.499Z,42.70
2017-09-30T03:20:09.140Z,45.90
2017-09-30T03:22:11.814Z,34.67
2017-09-30T03:24:14.507Z,36.30
2017-09-30T03:26:17.195Z,49.20
2017-09-30T03:28:19.842Z,53.10
2017-09-30T03:30:22.574Z,50.37
2017-09-30T03:32:26.031Z,51.10
2017-09-30T03:34:29.525Z,36.93
2017-09-30T03:36:32.191Z,49.13
2017-09-30T03:38:34.955Z,48.83
2017-09-30T03:40:37.674Z,41.07
2017-09-30T03:42:40.334Z,37.23
2017-09-30T03:44:43.014Z,61.27
2017-09-30T03:46:45.758Z,40.23
2017-09-30T03:48:48.432Z,35.47
2017-09-30T03:50:51.231Z,44.47
2017-09-30T03:52:54.978Z,37.77
2017-09-30T03:54:57.655Z,41.17
2017-09-30T03:57:01.188Z,38.63
2017-09-30T03:59:03.858Z,56.33
2017-09-30T04:01:06.562Z,117.13
2017-09-30T04:03:09.255Z,51.90
2017-09-30T04:05:12.012Z,46.50
2017-09-30T04:07:14.674Z,57.80
2017-09-30T04:09:17.348Z,51.00
2017-09-30T04:11:20.119Z,123.80
2017-09-30T04:13:22.794Z,123.63
2017-09-30T04:15:25.487Z,51.63
2017-09-30T04:17:28.153Z,60.13
2017-09-30T04:19:30.937Z,43.80
2017-09-30T04:21:33.731Z,56.10
2017-09-30T04:23:36.409Z,67.37
2017-09-30T04:25:39.058Z,126.70
2017-09-30T04:27:41.921Z,39.57
2017-09-30T04:29:45.350Z,53.90
2017-09-30T04:31:47.986Z,43.63
2017-09-30T04:33:51.445Z,43.10
2017-09-30T04:35:54.089Z,47.53
2017-09-30T04:37:56.879Z,62.60
2017-09-30T04:39:59.562Z,65.83
2017-09-30T04:42:02.280Z,46.27
2017-09-30T04:44:05.889Z,35.87
2017-09-30T04:46:09.307Z,57.23
2017-09-30T04:48:11.954Z,79.90
2017-09-30T04:50:15.399Z,51.33
2017-09-30T04:52:18.155Z,48.87
2017-09-30T04:54:20.938Z,44.70
2017-09-30T04:56:23.605Z,53.13
2017-09-30T04:58:26.365Z,38.70
2017-09-30T05:00:29.876Z,32.80
2017-09-30T05:02:32.639Z,40.70
2017-09-30T05:04:35.337Z,46.20
2017-09-30T05:06:38.020Z,38.40
2017-09-30T05:08:40.895Z,35.63
2017-09-30T05:10:43.544Z,36.97
2017-09-30T05:12:47.058Z,40.97
2017-09-30T05:14:49.758Z,36.87
2017-09-30T05:16:52.419Z,34.03
2017-09-30T05:18:55.180Z,37.23
2017-09-30T05:20:57.848Z,34.80
2017-09-30T05:23:01.339Z,34.40
2017-09-30T05:25:04.145Z,40.47
2017-09-30T05:27:07.035Z,33.67
2017-09-30T05:29:09.756Z,29.20
2017-09-30T05:31:12.446Z,31.93
2017-09-30T05:33:15.914Z,36.67
2017-09-30T05:35:18.663Z,47.23
2017-09-30T05:37:21.431Z,32.13
2017-09-30T05:39:24.131Z,36.30
2017-09-30T05:41:26.826Z,52.70
2017-09-30T05:43:29.519Z,49.20
2017-09-30T05:45:32.334Z,49.90
2017-09-30T05:47:35.008Z,43.53
2017-09-30T05:49:37.727Z,37.80
2017-09-30T05:51:40.408Z,35.77
2017-09-30T05:53:43.149Z,33.53
2017-09-30T05:55:45.867Z,35.73
2017-09-30T05:57:48.734Z,42.40
2017-09-30T05:59:51.380Z,34.40
2017-09-30T06:01:54.171Z,41.00
2017-09-30T06:03:56.841Z,36.10
2017-09-30T06:05:59.500Z,33.23
2017-09-30T06:08:02.191Z,38.80
2017-09-30T06:10:04.852Z,31.20
2017-09-30T06:12:08.278Z,37.00
2017-09-30T06:14:10.968Z,39.90
2017-09-30T06:16:13.646Z,35.50
2017-09-30T06:18:16.387Z,35.63
2017-09-30T06:20:19.113Z,29.40
2017-09-30T06:22:21.947Z,36.13
2017-09-30T06:24:24.693Z,34.03
2017-09-30T06:26:28.109Z,30.17
2017-09-30T06:28:30.811Z,23.77
2017-09-30T06:30:33.723Z,26.60
2017-09-30T06:32:36.386Z,23.83
2017-09-30T06:34:39.229Z,24.43
2017-09-30T06:36:41.946Z,25.00
2017-09-30T06:38:44.789Z,27.40
2017-09-30T06:40:47.534Z,23.50
2017-09-30T06:42:50.995Z,25.30
2017-09-30T06:44:53.755Z,25.20
2017-09-30T06:46:56.401Z,23.83
2017-09-30T06:48:59.330Z,26.93
2017-09-30T06:51:02.043Z,30.10
2017-09-30T06:53:05.570Z,26.50
2017-09-30T06:55:08.293Z,26.40
2017-09-30T06:57:10.936Z,23.37
2017-09-30T06:59:13.646Z,26.50
2017-09-30T07:01:16.355Z,21.87
2017-09-30T07:03:19.873Z,22.93
2017-09-30T07:05:22.652Z,23.33
2017-09-30T07:07:25.319Z,24.03
2017-09-30T07:09:28.047Z,22.17
2017-09-30T07:11:30.925Z,24.13
2017-09-30T07:13:33.597Z,23.43
2017-09-30T07:15:36.496Z,17.47
2017-09-30T07:17:39.229Z,25.17
2017-09-30T07:19:41.899Z,17.87
2017-09-30T07:21:44.585Z,20.60
2017-09-30T07:23:47.292Z,17.40
2017-09-30T07:25:49.960Z,17.40
2017-09-30T07:27:52.638Z,16.53
2017-09-30T07:29:56.444Z,21.00
2017-09-30T07:31:59.119Z,25.17
2017-09-30T07:34:01.793Z,22.83
2017-09-30T07:36:04.505Z,17.93
2017-09-30T07:38:07.941Z,31.93
2017-09-30T07:40:10.607Z,22.23
2017-09-30T07:42:13.432Z,27.80
2017-09-30T07:44:16.877Z,23.40
2017-09-30T07:46:19.535Z,37.00
2017-09-30T07:48:22.971Z,22.53
2017-09-30T07:50:25.643Z,38.40
2017-09-30T07:52:28.360Z,26.40
2017-09-30T07:54:31.288Z,49.53
2017-09-30T07:56:33.951Z,26.17
2017-09-30T07:58:36.632Z,35.87
2017-09-30T08:00:39.385Z,22.47
2017-09-30T08:02:42.868Z,22.00
2017-09-30T08:04:45.591Z,19.17
2017-09-30T08:06:48.269Z,23.83
2017-09-30T08:08:50.991Z,20.30
2017-09-30T08:10:53.677Z,16.40
2017-09-30T08:12:56.345Z,20.67
2017-09-30T08:14:59.157Z,25.60
2017-09-30T08:17:01.924Z,25.03
2017-09-30T08:19:05.492Z,15.70
2017-09-30T08:21:08.238Z,19.33
2017-09-30T08:23:12.101Z,18.57
2017-09-30T08:25:14.819Z,17.93
2017-09-30T08:27:17.467Z,18.37
2017-09-30T08:29:20.220Z,14.57
2017-09-30T08:31:22.904Z,19.10
2017-09-30T08:33:25.675Z,15.07
2017-09-30T08:35:28.393Z,18.73
2017-09-30T08:37:31.077Z,17.83
2017-09-30T08:39:33.781Z,24.13
2017-09-30T08:41:36.491Z,28.50
2017-09-30T08:43:40.059Z,28.70
2017-09-30T08:45:42.733Z,22.20
2017-09-30T08:47:45.462Z,34.23
2017-09-30T08:49:48.320Z,19.30
2017-09-30T08:51:51.773Z,28.33
2017-09-30T08:53:54.590Z,26.83
2017-09-30T08:55:57.415Z,24.80
2017-09-30T08:58:00.146Z,22.00
2017-09-30T09:00:03.731Z,24.17
2017-09-30T09:02:06.377Z,15.70
2017-09-30T09:04:09.116Z,26.17
2017-09-30T09:06:12.636Z,24.57
2017-09-30T09:08:15.336Z,30.63
2017-09-30T09:10:18.090Z,20.33
2017-09-30T09:12:20.779Z,29.70
2017-09-30T09:14:23.482Z,25.93
2017-09-30T09:16:26.206Z,28.80
2017-09-30T09:18:28.881Z,31.13
2017-09-30T09:20:31.703Z,26.27
2017-09-30T09:22:34.370Z,38.30
2017-09-30T09:24:37.021Z,29.90
2017-09-30T09:26:39.744Z,62.33
2017-09-30T09:28:42.424Z,35.63
2017-09-30T09:30:45.088Z,34.03
2017-09-30T09:32:47.780Z,31.30
2017-09-30T09:34:50.474Z,32.90
2017-09-30T09:36:54.652Z,38.10
2017-09-30T09:38:57.318Z,40.70
2017-09-30T09:40:59.996Z,37.60
2017-09-30T09:43:02.713Z,46.53
2017-09-30T09:45:06.135Z,33.70
2017-09-30T09:47:08.958Z,39.07
2017-09-30T09:49:11.808Z,33.20
2017-09-30T09:51:14.471Z,24.10
2017-09-30T09:53:17.174Z,29.70
2017-09-30T09:55:19.934Z,31.30
2017-09-30T09:57:22.632Z,37.40
2017-09-30T09:59:25.452Z,30.70
2017-09-30T10:01:28.892Z,31.73
2017-09-30T10:03:31.537Z,22.20
2017-09-30T10:05:34.990Z,33.00
2017-09-30T10:07:37.669Z,34.93
2017-09-30T10:09:40.395Z,22.30
2017-09-30T10:11:43.068Z,22.90
2017-09-30T10:13:46.627Z,31.13
2017-09-30T10:15:49.284Z,19.77
2017-09-30T10:17:51.993Z,20.93
2017-09-30T10:19:54.708Z,22.93
2017-09-30T10:21:57.382Z,29.23
2017-09-30T10:24:00.125Z,22.93
2017-09-30T10:26:03.767Z,16.20
2017-09-30T10:28:06.730Z,24.67
2017-09-30T10:30:09.459Z,25.73
2017-09-30T10:32:12.203Z,30.23
2017-09-30T10:34:14.983Z,22.37
2017-09-30T10:36:17.796Z,19.60
2017-09-30T10:38:20.466Z,19.60
2017-09-30T10:40:23.457Z,21.67
2017-09-30T10:42:26.149Z,25.43
2017-09-30T10:44:29.676Z,27.67
2017-09-30T10:46:32.349Z,34.03
2017-09-30T10:48:36.441Z,24.50
2017-09-30T10:50:40.131Z,38.87
2017-09-30T10:52:44.400Z,46.73
2017-09-30T10:54:47.093Z,33.00
2017-09-30T10:56:49.799Z,35.20
2017-09-30T10:58:53.344Z,28.87
2017-09-30T11:00:56.247Z,27.73
2017-09-30T11:02:59.159Z,32.73
2017-09-30T11:05:01.841Z,33.13
2017-09-30T11:07:04.529Z,29.50
2017-09-30T11:09:08.098Z,33.40
2017-09-30T11:11:12.396Z,29.00
2017-09-30T11:13:15.071Z,28.13
2017-09-30T11:15:17.736Z,27.57
2017-09-30T11:17:20.488Z,29.50
2017-09-30T11:19:23.184Z,33.23
2017-09-30T11:21:26.183Z,34.50
2017-09-30T11:23:28.870Z,47.70
2017-09-30T11:25:33.646Z,27.97
2017-09-30T11:27:38.914Z,41.23
2017-09-30T11:29:41.697Z,44.13
2017-09-30T11:31:44.780Z,49.07
2017-09-30T11:33:47.960Z,34.73
2017-09-30T11:35:50.933Z,34.97
2017-09-30T11:37:53.636Z,48.20
2017-09-30T11:39:56.333Z,43.17
2017-09-30T11:41:59.216Z,49.57
2017-09-30T11:44:01.873Z,33.97
2017-09-30T11:46:05.146Z,37.53
2017-09-30T11:48:08.001Z,47.33
2017-09-30T11:50:10.799Z,50.30
2017-09-30T11:52:13.775Z,46.03
2017-09-30T11:54:16.489Z,66.73
2017-09-30T11:56:19.229Z,39.00
2017-09-30T11:58:21.935Z,34.73
2017-09-30T12:00:24.723Z,45.97
2017-09-30T12:02:27.382Z,29.70
2017-09-30T12:04:30.713Z,38.10
2017-09-30T12:06:34.197Z,30.47
2017-09-30T12:08:38.421Z,33.73
2017-09-30T12:10:42.014Z,38.57
2017-09-30T12:12:44.732Z,34.53
2017-09-30T12:14:47.398Z,31.40
2017-09-30T12:16:50.165Z,31.03
2017-09-30T12:18:53.586Z,30.07
2017-09-30T12:20:56.651Z,33.00
2017-09-30T12:23:00.077Z,31.73
2017-09-30T12:25:02.964Z,35.33
2017-09-30T12:27:05.730Z,48.27
2017-09-30T12:29:08.369Z,31.90
2017-09-30T12:31:11.872Z,26.13
2017-09-30T12:33:15.332Z,21.23
2017-09-30T12:35:18.166Z,19.87
2017-09-30T12:37:20.963Z,30.97
2017-09-30T12:39:23.653Z,23.07
2017-09-30T12:41:26.296Z,28.63
2017-09-30T12:43:28.955Z,20.40
2017-09-30T12:45:31.644Z,18.00
2017-09-30T12:47:34.447Z,31.07
2017-09-30T12:49:37.302Z,22.77
2017-09-30T12:51:39.984Z,27.67
2017-09-30T12:53:42.864Z,28.50
2017-09-30T12:55:45.527Z,32.17
2017-09-30T12:57:48.232Z,25.97
2017-09-30T12:59:50.872Z,27.13
2017-09-30T13:01:54.287Z,23.60
2017-09-30T13:03:57.232Z,26.47
2017-09-30T13:06:00.861Z,20.27
2017-09-30T13:08:03.744Z,34.17
2017-09-30T13:10:06.753Z,21.93
2017-09-30T13:12:09.952Z,27.73
2017-09-30T13:14:12.629Z,18.73
2017-09-30T13:16:15.302Z,19.13
2017-09-30T13:18:18.024Z,16.53
2017-09-30T13:20:21.750Z,24.00
2017-09-30T13:22:24.446Z,22.50
2017-09-30T13:24:27.163Z,18.70
2017-09-30T13:26:29.814Z,20.63
2017-09-30T13:28:32.661Z,24.77
2017-09-30T13:30:35.439Z,24.57
2017-09-30T13:32:38.102Z,20.40
2017-09-30T13:34:40.996Z,23.77
2017-09-30T13:36:43.663Z,25.17
2017-09-30T13:38:46.386Z,28.90
2017-09-30T13:40:49.078Z,21.80
2017-09-30T13:42:51.721Z,25.97
2017-09-30T13:44:54.476Z,33.13
2017-09-30T13:46:57.294Z,23.53
2017-09-30T13:48:59.945Z,19.00
2017-09-30T13:51:02.779Z,25.53
2017-09-30T13:53:06.235Z,29.20
2017-09-30T13:55:08.988Z,40.10
2017-09-30T13:57:11.655Z,29.33
2017-09-30T13:59:14.341Z,22.27
2017-09-30T14:01:17.076Z,22.23
2017-09-30T14:03:19.840Z,28.23
2017-09-30T14:05:22.604Z,19.73
2017-09-30T14:07:25.396Z,20.90
2017-09-30T14:09:28.224Z,19.07
2017-09-30T14:11:30.905Z,19.60
2017-09-30T14:13:33.855Z,17.73
2017-09-30T14:15:37.490Z,28.00
2017-09-30T14:17:40.199Z,32.67
2017-09-30T14:19:42.943Z,31.50
2017-09-30T14:21:45.724Z,20.17
2017-09-30T14:23:48.418Z,24.00
2017-09-30T14:25:51.061Z,85.50
2017-09-30T14:27:53.834Z,30.63
2017-09-30T14:29:56.532Z,27.20
2017-09-30T14:31:59.257Z,28.37
2017-09-30T14:34:01.897Z,19.67
2017-09-30T14:36:04.608Z,26.23
2017-09-30T14:38:07.583Z,27.17
2017-09-30T14:40:10.298Z,28.30
2017-09-30T14:42:13.777Z,19.67
2017-09-30T14:44:16.569Z,21.50
2017-09-30T14:46:20.224Z,20.50
2017-09-30T14:48:23.001Z,17.80
2017-09-30T14:50:25.743Z,18.13
2017-09-30T14:52:28.524Z,17.43
2017-09-30T14:54:31.195Z,19.27
2017-09-30T14:56:33.878Z,20.13
2017-09-30T14:58:36.746Z,20.53
2017-09-30T15:00:39.398Z,21.90
2017-09-30T15:02:42.057Z,15.90
2017-09-30T15:04:44.835Z,12.77
2017-09-30T15:06:47.571Z,18.07
2017-09-30T15:08:50.220Z,20.60
2017-09-30T15:10:53.654Z,18.93
2017-09-30T15:12:56.322Z,17.77
2017-09-30T15:14:59.375Z,24.27
2017-09-30T15:17:02.843Z,25.67
2017-09-30T15:19:05.508Z,26.30
2017-09-30T15:21:08.343Z,23.10
2017-09-30T15:23:11.044Z,25.90
2017-09-30T15:25:13.773Z,40.40
2017-09-30T15:27:17.199Z,28.33
2017-09-30T15:29:19.886Z,16.23
2017-09-30T15:31:23.368Z,11.47
2017-09-30T15:33:26.058Z,24.50
2017-09-30T15:35:28.757Z,18.40
2017-09-30T15:37:31.511Z,17.17
2017-09-30T15:39:34.177Z,19.50
2017-09-30T15:41:36.898Z,15.23
2017-09-30T15:43:39.719Z,44.60
2017-09-30T15:45:42.458Z,19.23
2017-09-30T15:47:46.211Z,27.63
2017-09-30T15:49:48.912Z,18.20
2017-09-30T15:51:51.755Z,19.70
2017-09-30T15:53:54.526Z,18.83
2017-09-30T15:55:58.091Z,19.90
2017-09-30T15:58:00.765Z,16.80
2017-09-30T16:00:03.456Z,18.13
2017-09-30T16:02:06.914Z,31.20
2017-09-30T16:04:09.670Z,25.50
2017-09-30T16:06:12.524Z,23.77
2017-09-30T16:08:15.960Z,15.93
2017-09-30T16:10:18.902Z,18.10
2017-09-30T16:12:22.318Z,15.80
2017-09-30T16:14:24.968Z,18.30
2017-09-30T16:16:28.601Z,23.13
2017-09-30T16:18:31.362Z,21.87
2017-09-30T16:20:34.117Z,24.00
2017-09-30T16:22:37.591Z,21.40
2017-09-30T16:24:40.333Z,25.93
2017-09-30T16:26:43.105Z,23.27
2017-09-30T16:28:45.822Z,24.33
2017-09-30T16:30:48.478Z,19.03
2017-09-30T16:32:51.140Z,20.07
2017-09-30T16:34:53.831Z,22.63
2017-09-30T16:36:57.334Z,26.30
2017-09-30T16:39:00.008Z,15.97
2017-09-30T16:41:02.685Z,22.10
2017-09-30T16:43:05.330Z,16.40
2017-09-30T16:45:07.981Z,28.73
2017-09-30T16:47:10.716Z,24.17
2017-09-30T16:49:13.453Z,27.93
2017-09-30T16:51:16.107Z,28.13
2017-09-30T16:53:19.544Z,24.23
2017-09-30T16:55:22.285Z,22.83
2017-09-30T16:57:25.778Z,21.40
2017-09-30T16:59:29.217Z,31.67
2017-09-30T17:01:31.972Z,32.23
2017-09-30T17:03:34.744Z,26.57
2017-09-30T17:05:37.502Z,25.83
2017-09-30T17:07:42.054Z,21.30
2017-09-30T17:09:44.708Z,24.27
2017-09-30T17:11:48.014Z,25.70
2017-09-30T17:13:50.898Z,19.87
2017-09-30T17:15:53.571Z,30.53
2017-09-30T17:17:57.012Z,23.20
2017-09-30T17:19:59.855Z,23.97
2017-09-30T17:22:02.544Z,27.50
2017-09-30T17:24:05.416Z,28.03
2017-09-30T17:26:08.399Z,28.83
2017-09-30T17:28:11.510Z,21.10
2017-09-30T17:30:14.367Z,27.10
2017-09-30T17:32:17.041Z,23.53
2017-09-30T17:34:19.684Z,28.10
2017-09-30T17:36:23.336Z,23.57
2017-09-30T17:38:26.064Z,23.40
2017-09-30T17:40:29.697Z,33.67
2017-09-30T17:42:32.386Z,19.83
2017-09-30T17:44:35.704Z,29.77
2017-09-30T17:46:38.564Z,27.50
2017-09-30T17:48:41.303Z,23.57
2017-09-30T17:50:44.320Z,30.90
2017-09-30T17:52:47.155Z,31.53
2017-09-30T17:54:50.617Z,47.37
2017-09-30T17:56:54.151Z,29.53
2017-09-30T17:58:57.839Z,30.07
2017-09-30T18:01:01.391Z,25.13
2017-09-30T18:03:04.045Z,21.80
2017-09-30T18:05:07.527Z,26.60
2017-09-30T18:07:10.297Z,33.00
2017-09-30T18:09:13.728Z,41.90
2017-09-30T18:11:16.438Z,21.93
2017-09-30T18:13:19.109Z,30.73
2017-09-30T18:15:21.860Z,30.87
2017-09-30T18:17:24.722Z,23.33
2017-09-30T18:19:27.498Z,27.63
2017-09-30T18:21:30.178Z,30.57
2017-09-30T18:23:33.025Z,26.40
2017-09-30T18:25:36.554Z,20.57
2017-09-30T18:27:40.414Z,19.30
2017-09-30T18:29:43.073Z,20.70
2017-09-30T18:31:45.865Z,20.87
2017-09-30T18:33:48.595Z,26.20
2017-09-30T18:35:51.388Z,18.37
2017-09-30T18:37:54.354Z,21.83
2017-09-30T18:39:57.019Z,22.87
2017-09-30T18:41:59.806Z,26.60
2017-09-30T18:44:04.436Z,29.83
2017-09-30T18:46:07.899Z,26.33
2017-09-30T18:48:11.323Z,20.43
2017-09-30T18:50:14.111Z,29.87
2017-09-30T18:52:16.827Z,23.83
2017-09-30T18:54:19.481Z,21.30
2017-09-30T18:56:22.152Z,21.23
2017-09-30T18:58:24.900Z,20.23
2017-09-30T19:00:27.546Z,20.70
2017-09-30T19:02:31.087Z,21.30
2017-09-30T19:04:33.938Z,19.30
2017-09-30T19:06:36.780Z,22.80
2017-09-30T19:08:39.580Z,23.97
2017-09-30T19:10:43.065Z,23.07
2017-09-30T19:12:46.791Z,27.23
2017-09-30T19:14:49.894Z,22.60
2017-09-30T19:16:52.913Z,26.27
2017-09-30T19:18:55.589Z,24.37
2017-09-30T19:20:58.367Z,25.13
2017-09-30T19:23:01.140Z,28.90
2017-09-30T19:25:03.851Z,22.33
2017-09-30T19:27:06.667Z,26.70
2017-09-30T19:29:10.097Z,26.13
2017-09-30T19:31:12.957Z,24.50
2017-09-30T19:33:15.649Z,27.70
2017-09-30T19:35:18.550Z,30.73
2017-09-30T19:37:21.275Z,29.30
2017-09-30T19:39:24.001Z,24.93
2017-09-30T19:41:26.691Z,26.67
2017-09-30T19:43:29.409Z,38.30
2017-09-30T19:45:32.084Z,25.43
2017-09-30T19:47:34.796Z,23.57
2017-09-30T19:49:37.544Z,24.97
2017-09-30T19:51:40.320Z,25.47
2017-09-30T19:53:43.108Z,21.83
2017-09-30T19:55:45.773Z,20.67
2017-09-30T19:57:48.463Z,28.97
2017-09-30T19:59:52.572Z,23.77
2017-09-30T20:01:55.222Z,19.43
2017-09-30T20:03:57.900Z,26.27
2017-09-30T20:06:00.673Z,20.43
2017-09-30T20:08:03.351Z,25.63
2017-09-30T20:10:06.111Z,26.93
2017-09-30T20:12:09.536Z,33.83
2017-09-30T20:14:12.279Z,23.40
2017-09-30T20:16:15.824Z,27.70
2017-09-30T20:18:18.517Z,23.10
2017-09-30T20:20:21.369Z,21.20
2017-09-30T20:22:24.070Z,32.47
2017-09-30T20:24:26.759Z,22.20
2017-09-30T20:26:29.525Z,30.90
2017-09-30T20:28:32.183Z,22.43
2017-09-30T20:30:34.928Z,25.27
2017-09-30T20:32:38.411Z,27.93
2017-09-30T20:34:41.238Z,19.60
2017-09-30T20:36:43.972Z,27.63
2017-09-30T20:38:47.462Z,38.13
2017-09-30T20:40:50.903Z,34.70
2017-09-30T20:42:53.593Z,26.03
2017-09-30T20:44:56.497Z,26.80
2017-09-30T20:46:59.176Z,39.37
2017-09-30T20:49:01.979Z,28.73
2017-09-30T20:51:05.456Z,29.43
2017-09-30T20:53:09.309Z,33.27
2017-09-30T20:55:11.989Z,34.70
2017-09-30T20:57:14.675Z,37.67
2017-09-30T20:59:17.440Z,43.23
2017-09-30T21:01:20.277Z,34.37
2017-09-30T21:03:23.132Z,28.53
2017-09-30T21:05:25.835Z,27.73
2017-09-30T21:07:28.488Z,36.07
2017-09-30T21:09:31.293Z,35.00
2017-09-30T21:11:34.803Z,28.33
2017-09-30T21:13:38.243Z,30.43
2017-09-30T21:15:41.035Z,32.37
2017-09-30T21:17:43.784Z,34.07
2017-09-30T21:19:46.545Z,29.40
2017-09-30T21:21:49.331Z,34.33
2017-09-30T21:23:51.985Z,30.70
2017-09-30T21:25:55.461Z,27.17
2017-09-30T21:27:58.185Z,31.43
2017-09-30T21:30:01.033Z,35.43
2017-09-30T21:32:04.823Z,35.37
2017-09-30T21:34:07.503Z,35.80
2017-09-30T21:36:10.167Z,28.40
2017-09-30T21:38:12.854Z,31.63
2017-09-30T21:40:16.386Z,29.10
2017-09-30T21:42:19.101Z,35.43
2017-09-30T21:44:22.567Z,28.03
2017-09-30T21:46:25.219Z,24.33
2017-09-30T21:48:27.866Z,37.20
2017-09-30T21:50:30.613Z,29.63
2017-09-30T21:52:33.354Z,38.43
2017-09-30T21:54:35.993Z,25.93
2017-09-30T21:56:38.719Z,31.87
2017-09-30T21:58:41.385Z,41.33
2017-09-30T22:00:44.039Z,31.93
2017-09-30T22:02:47.709Z,25.80
2017-09-30T22:04:50.366Z,37.90
2017-09-30T22:06:53.027Z,27.17
2017-09-30T22:08:55.815Z,37.50
2017-09-30T22:10:58.454Z,34.60
2017-09-30T22:13:02.313Z,28.60
2017-09-30T22:15:05.097Z,32.30
2017-09-30T22:17:07.733Z,32.93
2017-09-30T22:19:10.487Z,42.10
2017-09-30T22:21:13.303Z,41.73
2017-09-30T22:23:16.169Z,43.93
2017-09-30T22:25:18.819Z,42.37
2017-09-30T22:27:22.254Z,61.83
2017-09-30T22:29:24.930Z,47.47
2017-09-30T22:31:27.693Z,38.30
2017-09-30T22:33:30.409Z,41.73
2017-09-30T22:35:33.124Z,35.70
2017-09-30T22:37:36.644Z,47.53
2017-09-30T22:39:39.424Z,34.93
2017-09-30T22:41:42.327Z,34.93
2017-09-30T22:43:45.082Z,33.10
2017-09-30T22:45:47.812Z,38.03
2017-09-30T22:47:50.473Z,57.30
2017-09-30T22:49:53.316Z,37.27
2017-09-30T22:51:56.096Z,43.57
2017-09-30T22:53:59.059Z,43.47
2017-09-30T22:56:02.591Z,36.23
2017-09-30T22:58:07.461Z,38.77
2017-09-30T23:00:10.161Z,37.43
2017-09-30T23:02:14.339Z,35.20
2017-09-30T23:04:17.119Z,41.93
2017-09-30T23:06:19.779Z,33.87
2017-09-30T23:08:22.827Z,42.20
2017-09-30T23:10:25.473Z,42.70
2017-09-30T23:12:29.096Z,32.83
2017-09-30T23:14:31.809Z,36.70
2017-09-30T23:16:34.449Z,39.97
2017-09-30T23:18:37.284Z,44.90
2017-09-30T23:20:39.952Z,44.10
2017-09-30T23:22:42.789Z,40.47
2017-09-30T23:24:45.478Z,49.97
2017-09-30T23:26:48.158Z,43.17
2017-09-30T23:28:50.816Z,35.00
2017-09-30T23:30:53.588Z,51.07
2017-09-30T23:32:56.261Z,49.23
2017-09-30T23:34:58.976Z,36.47
2017-09-30T23:37:01.813Z,40.13
2017-09-30T23:39:05.253Z,40.40
2017-09-30T23:41:07.999Z,43.33
2017-09-30T23:43:10.643Z,47.20
2017-09-30T23:45:14.180Z,48.33
2017-09-30T23:47:17.589Z,39.40
2017-09-30T23:49:21.065Z,50.60
2017-09-30T23:51:23.760Z,47.53
2017-09-30T23:53:26.420Z,44.97
2017-09-30T23:55:29.162Z,38.90
2017-09-30T23:57:32.688Z,39.00
2017-09-30T23:59:35.347Z,42.77
